createdAt,value
2022-11-30T00:01:15.272Z,-1.58
2022-11-30T00:03:42.039Z,-1.58
2022-11-30T00:06:11.391Z,-1.63
2022-11-30T00:08:38.349Z,-1.71
2022-11-30T00:11:13.162Z,-1.77
2022-11-30T00:13:40.540Z,-1.70
2022-11-30T00:16:07.956Z,-1.72
2022-11-30T00:18:34.684Z,-1.80
2022-11-30T00:21:02.531Z,-1.78
2022-11-30T00:23:37.252Z,-1.77
2022-11-30T00:26:05.120Z,-1.74
2022-11-30T00:28:33.328Z,-1.86
2022-11-30T00:31:01.622Z,-1.75
2022-11-30T00:33:29.045Z,-1.76
2022-11-30T00:36:00.044Z,-1.75
2022-11-30T00:38:26.702Z,-1.77
2022-11-30T00:40:53.475Z,-1.83
2022-11-30T00:43:20.293Z,-1.77
2022-11-30T00:45:47.031Z,-1.77
2022-11-30T00:48:13.758Z,-1.79
2022-11-30T00:50:40.492Z,-1.69
2022-11-30T00:53:07.257Z,-1.81
2022-11-30T00:55:33.931Z,-1.68
2022-11-30T00:58:01.471Z,-1.72
2022-11-30T01:00:28.949Z,-1.65
2022-11-30T01:02:56.521Z,-1.60
2022-11-30T01:05:23.215Z,-1.60
2022-11-30T01:07:49.917Z,-1.69
2022-11-30T01:10:16.903Z,-1.64
2022-11-30T01:12:43.583Z,-1.63
2022-11-30T01:15:10.994Z,-1.75
2022-11-30T01:17:37.670Z,-1.73
2022-11-30T01:20:06.544Z,-1.74
2022-11-30T01:22:33.208Z,-1.77
2022-11-30T01:24:59.957Z,-1.72
2022-11-30T01:27:26.690Z,-1.85
2022-11-30T01:29:53.437Z,-1.65
2022-11-30T01:32:20.143Z,-1.58
2022-11-30T01:34:46.977Z,-1.54
2022-11-30T01:37:13.817Z,-1.57
2022-11-30T01:39:40.840Z,-1.57
2022-11-30T01:42:16.856Z,-1.56
2022-11-30T01:44:51.555Z,-1.59
2022-11-30T01:47:20.845Z,-1.59
2022-11-30T01:49:51.964Z,-1.66
2022-11-30T01:52:24.999Z,-1.55
2022-11-30T01:55:03.911Z,-1.59
2022-11-30T01:57:35.106Z,-1.59
2022-11-30T02:00:04.852Z,-1.62
2022-11-30T02:03:03.839Z,-1.66
2022-11-30T02:05:31.013Z,-1.54
2022-11-30T02:07:57.810Z,-1.54
2022-11-30T02:10:30.529Z,-1.60
2022-11-30T02:13:00.142Z,-1.50
2022-11-30T02:15:31.718Z,-1.45
2022-11-30T02:18:06.007Z,-1.55
2022-11-30T02:20:41.838Z,-1.52
2022-11-30T02:23:41.096Z,-1.51
2022-11-30T02:26:08.487Z,-1.51
2022-11-30T02:29:06.792Z,-1.48
2022-11-30T02:31:42.597Z,-1.63
2022-11-30T02:34:10.935Z,-1.60
2022-11-30T02:36:37.786Z,-1.53
2022-11-30T02:39:05.320Z,-1.53
2022-11-30T02:41:38.258Z,-1.50
2022-11-30T02:44:06.202Z,-1.63
2022-11-30T02:47:10.919Z,-1.57
2022-11-30T02:49:40.675Z,-1.67
2022-11-30T02:52:08.393Z,-1.77
2022-11-30T02:54:35.046Z,-1.73
2022-11-30T02:57:01.836Z,-1.68
2022-11-30T02:59:28.834Z,-1.76
2022-11-30T03:01:56.314Z,-1.80
2022-11-30T03:04:23.003Z,-1.68
2022-11-30T03:06:49.877Z,-1.69
2022-11-30T03:09:16.508Z,-1.71
2022-11-30T03:11:43.160Z,-1.64
2022-11-30T03:14:09.815Z,-1.65
2022-11-30T03:16:37.579Z,-1.67
2022-11-30T03:19:04.383Z,-1.61
2022-11-30T03:21:31.069Z,-1.84
2022-11-30T03:23:57.776Z,-1.76
2022-11-30T03:26:24.513Z,-1.79
2022-11-30T03:28:51.189Z,-1.72
2022-11-30T03:31:17.863Z,-1.80
2022-11-30T03:33:44.544Z,-1.77
2022-11-30T03:36:12.360Z,-1.75
2022-11-30T03:38:39.231Z,-1.68
2022-11-30T03:41:16.715Z,-1.69
2022-11-30T03:43:47.053Z,-1.75
2022-11-30T03:46:14.046Z,-1.81
2022-11-30T03:48:43.689Z,-1.78
2022-11-30T03:51:11.386Z,-1.77
2022-11-30T03:53:38.137Z,-1.78
2022-11-30T03:56:07.334Z,-1.78
2022-11-30T03:58:34.831Z,-2.00
2022-11-30T04:01:05.782Z,-1.83
2022-11-30T04:03:32.642Z,-1.90
2022-11-30T04:05:59.392Z,-2.01
2022-11-30T04:08:26.932Z,-1.95
2022-11-30T04:10:55.592Z,-1.90
2022-11-30T04:13:22.964Z,-2.12
2022-11-30T04:15:51.233Z,-1.84
2022-11-30T04:18:19.326Z,-1.87
2022-11-30T04:20:46.167Z,-2.03
2022-11-30T04:23:13.384Z,-1.98
2022-11-30T04:25:41.337Z,-1.98
2022-11-30T04:28:09.186Z,-1.99
2022-11-30T04:30:37.341Z,-1.98
2022-11-30T04:33:10.508Z,-1.98
2022-11-30T04:35:46.264Z,-2.00
2022-11-30T04:38:13.074Z,-1.95
2022-11-30T04:40:42.872Z,-2.07
2022-11-30T04:43:10.585Z,-2.11
2022-11-30T04:45:37.462Z,-2.03
2022-11-30T04:48:04.584Z,-2.11
2022-11-30T04:50:31.716Z,-2.07
2022-11-30T04:52:58.448Z,-2.12
2022-11-30T04:55:25.753Z,-2.12
2022-11-30T04:57:52.451Z,-2.08
2022-11-30T05:00:19.893Z,-2.10
2022-11-30T05:02:52.515Z,-2.19
2022-11-30T05:05:20.120Z,-2.14
2022-11-30T05:07:59.661Z,-2.11
2022-11-30T05:10:27.473Z,-2.23
2022-11-30T05:12:54.375Z,-2.29
2022-11-30T05:15:21.321Z,-2.24
2022-11-30T05:17:47.981Z,-2.32
2022-11-30T05:20:14.762Z,-2.50
2022-11-30T05:22:41.406Z,-2.30
2022-11-30T05:25:08.566Z,-2.26
2022-11-30T05:27:35.856Z,-2.28
2022-11-30T05:30:03.596Z,-2.28
2022-11-30T05:32:30.263Z,-2.23
2022-11-30T05:34:57.463Z,-2.31
2022-11-30T05:37:24.378Z,-2.34
2022-11-30T05:39:51.043Z,-2.33
2022-11-30T05:42:17.739Z,-2.39
2022-11-30T05:44:45.733Z,-2.43
2022-11-30T05:47:12.779Z,-2.47
2022-11-30T05:49:39.506Z,-2.49
2022-11-30T05:52:06.295Z,-2.46
2022-11-30T05:54:34.288Z,-2.46
2022-11-30T05:57:01.198Z,-2.44
2022-11-30T05:59:27.963Z,-2.44
2022-11-30T06:01:54.794Z,-2.48
2022-11-30T06:04:21.856Z,-2.49
2022-11-30T06:06:49.671Z,-2.40
2022-11-30T06:09:16.560Z,-2.58
2022-11-30T06:11:43.176Z,-2.63
2022-11-30T06:14:09.987Z,-2.70
2022-11-30T06:16:39.337Z,-2.61
2022-11-30T06:19:06.391Z,-2.47
2022-11-30T06:21:33.241Z,-2.50
2022-11-30T06:24:00.346Z,-2.44
2022-11-30T06:26:27.022Z,-2.45
2022-11-30T06:28:53.676Z,-2.47
2022-11-30T06:31:20.393Z,-2.43
2022-11-30T06:33:47.065Z,-2.43
2022-11-30T06:36:13.664Z,-2.48
2022-11-30T06:38:40.366Z,-2.48
2022-11-30T06:41:09.140Z,-2.46
2022-11-30T06:43:37.258Z,-2.44
2022-11-30T06:46:04.805Z,-2.58
2022-11-30T06:48:31.591Z,-2.52
2022-11-30T06:50:59.011Z,-2.58
2022-11-30T06:53:25.973Z,-2.58
2022-11-30T06:55:52.764Z,-2.58
2022-11-30T06:58:19.505Z,-2.49
2022-11-30T07:00:46.427Z,-2.44
2022-11-30T07:03:13.525Z,-2.58
2022-11-30T07:05:43.576Z,-2.41
2022-11-30T07:08:11.403Z,-2.50
2022-11-30T07:10:42.687Z,-2.42
2022-11-30T07:13:14.111Z,-2.43
2022-11-30T07:15:41.504Z,-2.51
2022-11-30T07:18:08.898Z,-2.30
2022-11-30T07:20:36.768Z,-2.44
2022-11-30T07:23:22.362Z,-2.28
2022-11-30T07:26:09.696Z,-2.32
2022-11-30T07:28:41.777Z,-2.27
2022-11-30T07:31:27.902Z,-2.38
2022-11-30T07:33:55.588Z,-2.41
2022-11-30T07:36:23.697Z,-2.54
2022-11-30T07:38:50.474Z,-2.49
2022-11-30T07:41:17.203Z,-2.40
2022-11-30T07:43:44.126Z,-2.43
2022-11-30T07:46:13.108Z,-2.43
2022-11-30T07:48:40.289Z,-2.63
2022-11-30T07:51:10.379Z,-2.63
2022-11-30T07:53:40.574Z,-2.56
2022-11-30T07:56:12.368Z,-2.70
2022-11-30T07:58:39.918Z,-2.65
2022-11-30T08:01:08.887Z,-2.65
2022-11-30T08:03:37.239Z,-2.57
2022-11-30T08:06:15.483Z,-2.52
2022-11-30T08:08:46.553Z,-2.47
2022-11-30T08:11:15.388Z,-2.48
2022-11-30T08:13:42.403Z,-2.50
2022-11-30T08:16:20.127Z,-2.35
2022-11-30T08:18:47.731Z,-2.40
2022-11-30T08:21:16.329Z,-2.28
2022-11-30T08:23:48.394Z,-2.47
2022-11-30T08:26:17.827Z,-2.44
2022-11-30T08:28:45.342Z,-2.37
2022-11-30T08:31:17.667Z,-2.42
2022-11-30T08:33:44.757Z,-2.55
2022-11-30T08:36:16.599Z,-2.47
2022-11-30T08:38:44.487Z,-2.48
2022-11-30T08:41:12.723Z,-2.36
2022-11-30T08:43:39.780Z,-2.47
2022-11-30T08:46:34.641Z,-2.49
2022-11-30T08:49:12.875Z,-2.50
2022-11-30T08:52:15.371Z,-2.57
2022-11-30T08:54:31.419Z,-2.61
2022-11-30T08:56:59.270Z,-2.50
2022-11-30T08:59:26.085Z,-2.45
2022-11-30T09:01:52.921Z,-2.49
2022-11-30T09:04:19.564Z,-2.51
2022-11-30T09:06:46.175Z,-2.38
2022-11-30T09:09:12.884Z,-2.44
2022-11-30T09:11:39.521Z,-2.47
2022-11-30T09:14:08.060Z,-2.49
2022-11-30T09:16:35.382Z,-2.31
2022-11-30T09:19:02.403Z,-2.42
2022-11-30T09:21:29.464Z,-2.51
2022-11-30T09:23:56.766Z,-2.50
2022-11-30T09:26:25.401Z,-2.51
2022-11-30T09:28:54.715Z,-2.38
2022-11-30T09:31:23.720Z,-2.51
2022-11-30T09:33:50.573Z,-2.60
2022-11-30T09:36:19.715Z,-2.51
2022-11-30T09:38:47.436Z,-2.56
2022-11-30T09:41:47.910Z,-2.47
2022-11-30T09:44:33.015Z,-2.45
2022-11-30T09:47:14.794Z,-2.52
2022-11-30T09:49:44.386Z,-2.67
2022-11-30T09:52:39.009Z,-2.45
2022-11-30T09:55:09.208Z,-2.36
2022-11-30T09:57:53.576Z,-2.35
2022-11-30T10:00:22.563Z,-2.40
2022-11-30T10:02:50.754Z,-2.42
2022-11-30T10:05:22.394Z,-2.37
2022-11-30T10:08:12.536Z,-2.36
2022-11-30T10:10:45.323Z,-2.39
2022-11-30T10:13:28.037Z,-2.52
2022-11-30T10:16:04.693Z,-2.49
2022-11-30T10:18:59.433Z,-2.48
2022-11-30T10:21:31.531Z,-2.43
2022-11-30T10:24:16.490Z,-2.41
2022-11-30T10:27:08.970Z,-2.53
2022-11-30T10:29:37.725Z,-2.30
2022-11-30T10:32:14.465Z,-2.38
2022-11-30T10:34:41.809Z,-2.31
2022-11-30T10:37:13.220Z,-2.54
2022-11-30T10:40:01.229Z,-2.60
2022-11-30T10:42:50.241Z,-2.60
2022-11-30T10:45:20.527Z,-2.45
2022-11-30T10:47:54.908Z,-2.45
2022-11-30T10:50:24.379Z,-2.29
2022-11-30T10:52:56.366Z,-2.58
2022-11-30T10:55:25.480Z,-2.39
2022-11-30T10:57:59.706Z,-2.56
2022-11-30T11:00:26.431Z,-2.65
2022-11-30T11:02:53.898Z,-2.61
2022-11-30T11:05:22.269Z,-2.50
2022-11-30T11:07:55.359Z,-2.47
2022-11-30T11:10:28.410Z,-2.61
2022-11-30T11:12:55.904Z,-2.60
2022-11-30T11:15:24.115Z,-2.49
2022-11-30T11:17:51.669Z,-2.46
2022-11-30T11:20:27.448Z,-2.47
2022-11-30T11:22:54.125Z,-2.60
2022-11-30T11:25:22.993Z,-2.64
2022-11-30T11:27:55.067Z,-2.50
2022-11-30T11:30:29.707Z,-2.50
2022-11-30T11:33:00.391Z,-2.30
2022-11-30T11:35:39.757Z,-2.41
2022-11-30T11:38:29.053Z,-2.59
2022-11-30T11:41:01.617Z,-2.52
2022-11-30T11:43:33.537Z,-2.40
2022-11-30T11:46:11.729Z,-2.60
2022-11-30T11:48:41.030Z,-2.49
2022-11-30T11:51:10.118Z,-2.51
2022-11-30T11:53:53.282Z,-2.57
2022-11-30T11:56:24.654Z,-2.53
2022-11-30T11:59:16.396Z,-2.40
2022-11-30T12:01:52.064Z,-2.34
2022-11-30T12:04:37.636Z,-2.46
2022-11-30T12:07:30.074Z,-2.43
2022-11-30T12:13:28.969Z,-2.38
2022-11-30T12:16:20.313Z,-2.30
2022-11-30T12:18:56.024Z,-2.37
2022-11-30T12:21:52.301Z,-2.54
2022-11-30T12:24:27.912Z,-2.54
2022-11-30T12:27:00.094Z,-2.48
2022-11-30T12:29:45.986Z,-2.57
2022-11-30T12:32:12.744Z,-2.53
2022-11-30T12:35:11.749Z,-2.54
2022-11-30T12:37:58.162Z,-2.59
2022-11-30T12:40:35.797Z,-2.60
2022-11-30T12:43:28.756Z,-2.51
2022-11-30T12:46:02.627Z,-2.34
2022-11-30T12:48:29.351Z,-2.44
2022-11-30T12:51:18.931Z,-2.45
2022-11-30T12:54:23.029Z,-2.46
2022-11-30T12:56:55.707Z,-2.32
2022-11-30T12:59:45.375Z,-2.35
2022-11-30T13:02:33.864Z,-2.46
2022-11-30T13:05:04.701Z,-2.51
2022-11-30T13:07:46.782Z,-2.30
2022-11-30T13:10:37.720Z,-2.33
2022-11-30T13:13:05.103Z,-2.20
2022-11-30T13:15:34.202Z,-2.15
2022-11-30T13:18:02.016Z,-2.25
2022-11-30T13:20:42.724Z,-2.27
2022-11-30T13:23:17.211Z,-2.39
2022-11-30T13:26:09.775Z,-2.42
2022-11-30T13:28:42.898Z,-2.45
2022-11-30T13:31:17.902Z,-2.42
2022-11-30T13:33:51.617Z,-2.46
2022-11-30T13:36:32.437Z,-2.51
2022-11-30T13:39:15.271Z,-2.62
2022-11-30T13:42:00.360Z,-2.52
2022-11-30T13:44:33.276Z,-2.52
2022-11-30T13:47:02.088Z,-2.53
2022-11-30T13:49:31.010Z,-2.46
2022-11-30T13:52:21.712Z,-2.60
2022-11-30T13:54:53.937Z,-2.53
2022-11-30T13:57:29.662Z,-2.58
2022-11-30T13:59:58.559Z,-2.63
2022-11-30T14:02:36.508Z,-2.58
2022-11-30T14:05:35.112Z,-2.61
2022-11-30T14:08:01.782Z,-2.62
2022-11-30T14:10:31.439Z,-2.65
2022-11-30T14:13:04.724Z,-2.66
2022-11-30T14:15:43.250Z,-2.66
2022-11-30T14:18:10.026Z,-2.68
2022-11-30T14:20:42.857Z,-2.67
2022-11-30T14:23:15.326Z,-2.71
2022-11-30T14:25:47.681Z,-2.73
2022-11-30T14:28:18.041Z,-2.72
2022-11-30T14:30:45.100Z,-2.77
2022-11-30T14:33:20.179Z,-2.77
2022-11-30T14:35:49.914Z,-2.69
2022-11-30T14:38:32.072Z,-2.71
2022-11-30T14:40:58.859Z,-2.76
2022-11-30T14:43:25.611Z,-2.66
2022-11-30T14:46:06.390Z,-2.70
2022-11-30T14:48:34.944Z,-2.70
2022-11-30T14:51:05.332Z,-2.68
2022-11-30T14:53:52.348Z,-2.73
2022-11-30T14:56:45.108Z,-2.68
2022-11-30T14:59:33.572Z,-2.62
2022-11-30T15:02:03.252Z,-2.70
2022-11-30T15:04:30.821Z,-2.63
2022-11-30T15:06:58.169Z,-2.75
2022-11-30T15:09:30.648Z,-2.67
2022-11-30T15:11:58.048Z,-2.84
2022-11-30T15:14:24.792Z,-2.75
2022-11-30T15:16:53.843Z,-2.72
2022-11-30T15:19:24.995Z,-2.71
2022-11-30T15:21:52.963Z,-2.69
2022-11-30T15:24:20.320Z,-2.72
2022-11-30T15:26:59.198Z,-2.74
2022-11-30T15:29:37.372Z,-2.83
2022-11-30T15:32:08.340Z,-2.81
2022-11-30T15:34:57.095Z,-2.80
2022-11-30T15:37:34.917Z,-2.75
2022-11-30T15:40:04.176Z,-2.88
2022-11-30T15:42:39.832Z,-2.78
2022-11-30T15:45:28.604Z,-2.80
2022-11-30T15:47:57.697Z,-2.77
2022-11-30T15:50:28.533Z,-2.78
2022-11-30T15:53:00.129Z,-2.80
2022-11-30T15:55:47.968Z,-2.80
2022-11-30T15:58:32.015Z,-2.80
2022-11-30T16:01:14.892Z,-2.82
2022-11-30T16:03:58.159Z,-2.78
2022-11-30T16:06:27.139Z,-2.89
2022-11-30T16:08:54.413Z,-2.93
2022-11-30T16:11:21.236Z,-2.80
2022-11-30T16:13:48.053Z,-2.75
2022-11-30T16:16:23.825Z,-2.69
2022-11-30T16:18:50.608Z,-2.63
2022-11-30T16:21:20.559Z,-2.66
2022-11-30T16:23:48.154Z,-2.61
2022-11-30T16:26:43.524Z,-2.62
2022-11-30T16:29:07.526Z,-2.61
2022-11-30T16:31:34.764Z,-2.35
2022-11-30T16:34:04.628Z,-2.45
2022-11-30T16:36:31.270Z,-2.59
2022-11-30T16:38:58.056Z,-2.56
2022-11-30T16:41:26.644Z,-2.47
2022-11-30T16:43:55.191Z,-2.47
2022-11-30T16:46:26.612Z,-2.48
2022-11-30T16:48:53.748Z,-2.47
2022-11-30T16:51:31.574Z,-2.43
2022-11-30T16:53:58.789Z,-2.35
2022-11-30T16:56:25.720Z,-2.43
2022-11-30T16:58:52.847Z,-2.44
2022-11-30T17:01:31.770Z,-2.49
2022-11-30T17:04:14.987Z,-2.42
2022-11-30T17:06:41.636Z,-2.41
2022-11-30T17:09:16.125Z,-2.43
2022-11-30T17:11:43.400Z,-2.41
2022-11-30T17:14:14.454Z,-2.40
2022-11-30T17:16:41.708Z,-2.42
2022-11-30T17:19:09.516Z,-2.46
2022-11-30T17:21:39.353Z,-2.38
2022-11-30T17:24:07.175Z,-2.33
2022-11-30T17:26:33.971Z,-2.35
2022-11-30T17:29:00.738Z,-2.38
2022-11-30T17:31:27.539Z,-2.35
2022-11-30T17:33:54.370Z,-2.37
2022-11-30T17:36:21.108Z,-2.30
2022-11-30T17:38:47.852Z,-2.32
2022-11-30T17:41:19.611Z,-2.25
2022-11-30T17:43:47.544Z,-2.30
2022-11-30T17:46:17.203Z,-2.27
2022-11-30T17:48:44.540Z,-2.31
2022-11-30T17:51:12.337Z,-2.30
2022-11-30T17:53:39.982Z,-2.39
2022-11-30T17:56:11.897Z,-2.37
2022-11-30T17:58:43.309Z,-2.31
2022-11-30T18:01:19.687Z,-2.34
2022-11-30T18:03:46.654Z,-2.23
2022-11-30T18:06:14.624Z,-2.23
2022-11-30T18:08:41.429Z,-2.26
2022-11-30T18:11:09.978Z,-2.28
2022-11-30T18:13:36.734Z,-2.23
2022-11-30T18:16:08.721Z,-2.17
2022-11-30T18:18:35.444Z,-2.28
2022-11-30T18:21:06.735Z,-2.24
2022-11-30T18:23:35.150Z,-2.23
2022-11-30T18:26:03.531Z,-2.28
2022-11-30T18:28:30.517Z,-2.34
2022-11-30T18:30:57.367Z,-2.27
2022-11-30T18:33:24.100Z,-2.16
2022-11-30T18:35:50.880Z,-2.26
2022-11-30T18:38:17.537Z,-2.32
2022-11-30T18:40:44.343Z,-2.17
2022-11-30T18:43:11.017Z,-2.17
2022-11-30T18:45:38.716Z,-2.20
2022-11-30T18:48:06.563Z,-2.25
2022-11-30T18:50:33.331Z,-2.17
2022-11-30T18:53:01.338Z,-2.40
2022-11-30T18:55:30.469Z,-2.23
2022-11-30T18:57:57.319Z,-2.19
2022-11-30T19:00:24.133Z,-2.17
2022-11-30T19:02:51.077Z,-2.07
2022-11-30T19:05:34.942Z,-2.15
2022-11-30T19:08:06.385Z,-2.11
2022-11-30T19:10:36.820Z,-2.29
2022-11-30T19:13:05.288Z,-2.15
2022-11-30T19:15:41.846Z,-2.12
2022-11-30T19:18:11.024Z,-2.13
2022-11-30T19:20:41.478Z,-2.14
2022-11-30T19:23:08.449Z,-2.12
2022-11-30T19:25:35.226Z,-2.07
2022-11-30T19:28:01.868Z,-2.11
2022-11-30T19:30:28.639Z,-2.09
2022-11-30T19:32:55.348Z,-2.03
2022-11-30T19:35:23.208Z,-2.03
2022-11-30T19:37:52.134Z,-2.17
2022-11-30T19:40:18.975Z,-2.03
2022-11-30T19:42:45.603Z,-2.07
2022-11-30T19:45:12.278Z,-1.96
2022-11-30T19:47:50.337Z,-2.12
2022-11-30T19:50:17.067Z,-2.10
2022-11-30T19:52:43.850Z,-2.03
2022-11-30T19:55:10.463Z,-2.00
2022-11-30T19:57:37.135Z,-1.90
2022-11-30T20:00:08.294Z,-1.87
2022-11-30T20:02:38.235Z,-1.97
2022-11-30T20:05:05.176Z,-1.91
2022-11-30T20:07:31.876Z,-1.92
2022-11-30T20:09:58.573Z,-1.92
2022-11-30T20:12:25.215Z,-2.05
2022-11-30T20:14:52.292Z,-1.89
2022-11-30T20:17:18.954Z,-2.01
2022-11-30T20:19:45.803Z,-1.94
2022-11-30T20:22:12.490Z,-1.81
2022-11-30T20:24:39.125Z,-1.85
2022-11-30T20:27:05.769Z,-1.92
2022-11-30T20:29:32.434Z,-1.94
2022-11-30T20:31:59.114Z,-2.07
2022-11-30T20:34:29.839Z,-1.93
2022-11-30T20:37:00.654Z,-1.90
2022-11-30T20:39:28.430Z,-1.95
2022-11-30T20:41:55.061Z,-2.03
2022-11-30T20:44:21.790Z,-1.94
2022-11-30T20:46:48.491Z,-2.00
2022-11-30T20:49:17.947Z,-1.94
2022-11-30T20:51:45.676Z,-1.88
2022-11-30T20:54:13.093Z,-2.13
2022-11-30T20:56:40.494Z,-1.96
2022-11-30T20:59:17.930Z,-1.93
2022-11-30T21:01:47.066Z,-1.92
2022-11-30T21:04:13.865Z,-1.92
2022-11-30T21:06:45.664Z,-1.99
2022-11-30T21:09:14.526Z,-2.00
2022-11-30T21:11:41.229Z,-1.99
2022-11-30T21:14:08.223Z,-2.05
2022-11-30T21:16:35.733Z,-1.99
2022-11-30T21:19:02.634Z,-2.06
2022-11-30T21:21:32.169Z,-2.07
2022-11-30T21:24:00.709Z,-2.09
2022-11-30T21:26:33.399Z,-2.10
2022-11-30T21:29:06.107Z,-2.11
2022-11-30T21:31:33.721Z,-2.06
2022-11-30T21:34:00.661Z,-2.10
2022-11-30T21:36:27.619Z,-2.18
2022-11-30T21:39:01.008Z,-2.12
2022-11-30T21:41:31.390Z,-2.11
2022-11-30T21:43:58.098Z,-2.15
2022-11-30T21:46:24.875Z,-2.11
2022-11-30T21:48:51.541Z,-2.14
2022-11-30T21:51:23.721Z,-2.21
2022-11-30T21:53:53.518Z,-2.16
2022-11-30T21:56:23.087Z,-2.23
2022-11-30T21:58:50.994Z,-2.29
2022-11-30T22:01:32.045Z,-2.26
2022-11-30T22:03:59.785Z,-2.25
2022-11-30T22:06:29.562Z,-2.27
2022-11-30T22:09:09.579Z,-2.23
2022-11-30T22:11:41.439Z,-2.24
2022-11-30T22:14:12.171Z,-2.31
2022-11-30T22:16:50.021Z,-2.31
2022-11-30T22:19:18.402Z,-2.39
2022-11-30T22:21:49.766Z,-2.28
2022-11-30T22:24:17.054Z,-2.37
2022-11-30T22:26:45.130Z,-2.30
2022-11-30T22:29:20.594Z,-2.35
2022-11-30T22:31:47.925Z,-2.27
2022-11-30T22:34:14.898Z,-2.46
2022-11-30T22:36:43.439Z,-2.29
2022-11-30T22:39:12.387Z,-2.32
2022-11-30T22:41:40.270Z,-2.32
2022-11-30T22:44:07.026Z,-2.39
2022-11-30T22:46:35.399Z,-2.33
2022-11-30T22:49:04.310Z,-2.36
2022-11-30T22:51:32.421Z,-2.35
2022-11-30T22:53:59.664Z,-2.36
2022-11-30T22:56:31.323Z,-2.35
2022-11-30T22:59:00.642Z,-2.38
2022-11-30T23:01:38.803Z,-2.35
2022-11-30T23:04:11.385Z,-2.40
2022-11-30T23:06:40.029Z,-2.50
2022-11-30T23:09:10.434Z,-2.44
2022-11-30T23:11:37.273Z,-2.42
2022-11-30T23:14:08.378Z,-2.44
2022-11-30T23:16:36.466Z,-2.52
2022-11-30T23:19:03.915Z,-2.48
2022-11-30T23:21:38.896Z,-2.49
2022-11-30T23:24:08.747Z,-2.52
2022-11-30T23:26:37.450Z,-2.50
2022-11-30T23:29:08.688Z,-2.51
2022-11-30T23:31:37.327Z,-2.46
2022-11-30T23:34:06.690Z,-2.53
2022-11-30T23:36:34.136Z,-2.54
2022-11-30T23:39:04.505Z,-2.58
2022-11-30T23:41:31.250Z,-2.63
2022-11-30T23:43:57.876Z,-2.57
2022-11-30T23:46:25.185Z,-2.60
2022-11-30T23:48:52.242Z,-2.69
2022-11-30T23:51:19.113Z,-2.66
2022-11-30T23:53:47.378Z,-2.68
2022-11-30T23:56:15.884Z,-2.64
2022-11-30T23:58:42.625Z,-2.61
